• Join FlightAware (Why Join?)
  • Login
  • US Flag 
05:18AM EDT


 

Airport Tracker/Info


-or-


 

Live Flight TrackerFlight Track Log ✈ N413QS ✈ 24-Apr-2013 ✈ KDTW - KSAV

Flight Track Log - Related Links

Times and Time Zones

All times are in EDT time to prevent confusion due to time zone crossing. See the N413QS flight status page for this flight to view local times or setup timezone preferences in your user account.

Time Position Orientation Groundspeed Altitude Reporting Facility
EDT Latitude Longitude Course Direction KTS MPH feet Rate Location/Type
11:34PM 42.1997 -83.3525 184° South 170 196 1,800  Level Cleveland Center
11:34PM 42.1836 -83.3539 184° South 168 193 3,600 4,680 Climbing FAA TRACON SMA TRACON (SMA)
11:34PM 42.1711 -83.3572 191° South 160 184 5,000 4,200 Climbing FAA TRACON SMA TRACON (SMA)
11:35PM 42.1550 -83.3608 189° South 170 196 6,400 2,820 Climbing FAA TRACON SMA TRACON (SMA)
11:35PM 42.1392 -83.3639 188° South 212 244 6,900 2,520 Climbing FAA TRACON SMA TRACON (SMA)
11:35PM 42.1158 -83.3686 189° South 238 274 8,100 3,660 Climbing FAA TRACON SMA TRACON (SMA)
11:36PM 42.0969 -83.3733 191° South 249 287 9,100 2,880 Climbing Cleveland Center
11:37PM 42.0178 -83.3753 181° South 257 296 11,800 2,520 Climbing Cleveland Center
11:38PM 41.9344 -83.3689 177° South 306 352 14,200 2,640 Climbing Cleveland Center
11:39PM 41.8264 -83.3558 175° South 341 392 17,100 2,820 Climbing Cleveland Center
11:40PM 41.7222 -83.3486 177° South 367 422 19,900 2,700 Climbing Cleveland Center
11:41PM 41.6119 -83.3383 176° South 380 437 22,600 2,640 Climbing Cleveland Center
11:42PM 41.4997 -83.3225 174° South 393 452 25,200 2,460 Climbing Cleveland Center
11:43PM 41.3867 -83.2622 158° South 413 475 27,600 2,280 Climbing Cleveland Center
11:44PM 41.2714 -83.1994 158° South 425 489 29,800 2,400 Climbing Cleveland Center
11:45PM 41.1706 -83.1403 156° South 444 511 32,500 2,400 Climbing Cleveland Center
11:46PM 41.0531 -83.0750 157° South 454 522 34,600 2,160 Climbing Cleveland Center
11:48PM 40.8167 -82.9458 158° South 453 521 39,000 1,980 Climbing Indianapolis Center
11:49PM 40.7014 -82.8842 158° South 445 512 40,600 960 Climbing Indianapolis Center
11:50PM 40.5786 -82.8425 166° South 455 524 41,000 180 Climbing Indianapolis Center
11:51PM 40.4417 -82.8136 171° South 461 531 41,000  Level Indianapolis Center
11:52PM 40.3214 -82.7883 171° South 467 537 41,000  Level Indianapolis Center
11:53PM 40.1819 -82.7575 170° South 466 536 41,000  Level Indianapolis Center
11:54PM 40.0536 -82.7300 171° South 462 532 41,000  Level Indianapolis Center
11:55PM 39.9233 -82.7017 171° South 465 535 41,000  Level Indianapolis Center
11:56PM 39.7939 -82.6739 171° South 465 535 41,000  Level Indianapolis Center
11:57PM 39.6633 -82.6461 171° South 467 537 41,000  Level Indianapolis Center
11:58PM 39.5300 -82.6186 171° South 476 548 41,000  Level Indianapolis Center
11:59PM 39.3994 -82.5908 171° South 470 541 41,000  Level Indianapolis Center
12:00AM 39.2717 -82.5636 171° South 462 532 41,000  Level Indianapolis Center
12:01AM 39.1494 -82.5378 171° South 459 528 41,000  Level Indianapolis Center
12:02AM 39.0219 -82.5103 170° South 465 535 41,000  Level Indianapolis Center
12:03AM 38.8922 -82.4850 171° South 471 542 41,000  Level Indianapolis Center
12:04AM 38.7642 -82.4575 170° South 471 542 41,000  Level Indianapolis Center
12:05AM 38.6356 -82.4303 171° South 471 542 41,000  Level Indianapolis Center
12:06AM 38.5067 -82.4042 171° South 471 542 41,000  Level Indianapolis Center
12:07AM 38.3536 -82.3719 171° South 466 536 41,000  Level Indianapolis Center
12:08AM 38.2258 -82.3472 171° South 466 536 41,000  Level Indianapolis Center
12:09AM 38.0983 -82.3214 171° South 466 536 41,000  Level Indianapolis Center
12:10AM 37.9700 -82.2961 171° South 465 535 41,000  Level Indianapolis Center
12:11AM 37.8381 -82.2686 171° South 479 551 41,000  Level Indianapolis Center
12:12AM 37.7058 -82.2400 170° South 480 552 41,000  Level Indianapolis Center
12:13AM 37.5731 -82.2167 172° South 481 554 41,000  Level Indianapolis Center
12:14AM 37.4439 -82.1969 173° South 469 540 41,000  Level Indianapolis Center
12:15AM 37.3092 -82.1719 172° South 480 552 41,000  Level Indianapolis Center
12:15AM 37.2450 -82.1592 171° South 482 555 41,000  Level Atlanta Center
12:16AM 37.1153 -82.1389 173° South 519 597 41,000  Level Atlanta Center
12:17AM 36.9858 -82.1158 172° South 482 555 41,000  Level Atlanta Center
12:18AM 36.9164 -82.1050 173° South 468 539 41,000  Level Indianapolis Center
12:18AM 36.8686 -82.0953 171° South 477 549 41,000  Level Atlanta Center
12:19AM 36.7369 -82.0728 172° South 477 549 41,000  Level Atlanta Center
12:20AM 36.6094 -82.0525 173° South 477 549 41,000  Level Atlanta Center
12:21AM 36.4778 -82.0300 172° South 477 549 41,000  Level Atlanta Center
12:22AM 36.3481 -82.0075 172° South 477 549 41,000  Level Atlanta Center
12:23AM 36.2100 -81.9853 173° South 471 542 41,000  Level Atlanta Center
12:24AM 36.0783 -81.9656 173° South 465 535 41,000  Level Atlanta Center
12:25AM 35.9486 -81.9456 173° South 470 541 41,000  Level Atlanta Center
12:26AM 35.8189 -81.9208 171° South 470 541 41,000  Level Atlanta Center
12:27AM 35.6892 -81.9039 174° South 470 541 41,000  Level Atlanta Center
12:28AM 35.5575 -81.8792 171° South 476 548 41,000  Level Atlanta Center
12:29AM 35.4256 -81.8597 173° South 481 554 41,000  Level Atlanta Center
12:30AM 35.3000 -81.8400 173° South 481 554 41,000  Level Atlanta Center
12:31AM 35.1661 -81.8156 172° South 481 554 41,000 -300 Level Atlanta Center
12:32AM 35.0342 -81.7964 173° South 481 554 40,500 -780 Descending Atlanta Center
12:33AM 34.9044 -81.7719 171° South 478 550 39,500 -1,080 Descending Atlanta Center
12:34AM 34.7706 -81.7528 173° South 478 550 38,400 -960 Descending Atlanta Center
12:35AM 34.6533 -81.7333 172° South 486 559 37,600 -840 Descending Atlanta Center
12:37AM 34.5297 -81.6906 164° South  Level FlightAware Approximate
12:44AM 33.7408 -81.4968 174° South  Level FlightAware Approximate
12:45AM 33.6265 -81.4810 164° South  Level FlightAware Approximate
12:46AM 33.5135 -81.4559 173° South  Level FlightAware Approximate
12:47AM 33.3993 -81.4383 173° South  Level FlightAware Approximate
12:48AM 33.2879 -81.4075 170° South  Level FlightAware Approximate
12:49AM 33.1743 -81.3848 170° South  Level FlightAware Approximate
12:50AM 33.0608 -81.3621 170° South  Level FlightAware Approximate
12:51AM 32.9472 -81.3394 170° South  Level FlightAware Approximate
12:52AM 32.8328 -81.3259 175° South  Level FlightAware Approximate
12:53AM 32.7184 -81.3103 170° South  Level FlightAware Approximate
12:54AM 32.6071 -81.2790 172° South  Level FlightAware Approximate
12:55AM 32.4933 -81.2586 170° South  Level FlightAware Approximate
12:56AM 32.3797 -81.2359 170° South  Level FlightAware Approximate
12:57AM 32.2699 -81.2167 180° South  Level FlightAware Approximate
12:58AM 32.1689 -81.2000 180° South  Level FlightAware Approximate
12:59AM 32.1276 -81.2021 North  Level Estimated
01:00AM 32.1276 -81.2021 North  Level Estimated
01:01AM 32.1276 -81.2021 North  Level Estimated
01:02AM 32.1276 -81.2021 North  Level Estimated
01:03AM 32.1276 -81.2021 North  Level Estimated
01:04AM 32.1276 -81.2021 North  Level Estimated
01:05AM 32.1276 -81.2021 North  Level Estimated
01:06AM 32.1276 -81.2021 North  Level Estimated
01:07AM 32.1276 -81.2021 North  Level Estimated
01:08AM 32.1276 -81.2021 North  Level Estimated
01:09AM 32.1276 -81.2021 North  Level Estimated
01:10AM 32.1276 -81.2021 North  Level Estimated
01:11AM 32.1276 -81.2021 North  Level Estimated
01:12AM 32.1276 -81.2021 North  Level Estimated
01:13AM 32.1276 -81.2021 North  Level Estimated
01:14AM 32.1276 -81.2021 North  Level Estimated
01:15AM 32.1276 -81.2021 North  Level Estimated
01:16AM 32.1276 -81.2021 North  Level Estimated
01:17AM 32.1276 -81.2021 North  Level Estimated
01:18AM 32.1276 -81.2021 North  Level Estimated
01:19AM 32.1276 -81.2021 North  Level Estimated